createdAt,value
2023-01-20T00:02:00.407Z,8.27
2023-01-20T00:04:29.487Z,8.47
2023-01-20T00:06:57.942Z,11.95
2023-01-20T00:09:25.998Z,13.60
2023-01-20T00:11:53.717Z,13.95
2023-01-20T00:14:21.483Z,15.95
2023-01-20T00:16:49.454Z,14.40
2023-01-20T00:19:17.271Z,17.75
2023-01-20T00:21:46.260Z,17.88
2023-01-20T00:24:13.982Z,19.13
2023-01-20T00:26:42.728Z,19.95
2023-01-20T00:29:11.004Z,20.03
2023-01-20T00:31:39.156Z,20.33
2023-01-20T00:34:06.943Z,23.35
2023-01-20T00:36:35.208Z,22.33
2023-01-20T00:39:05.485Z,22.37
2023-01-20T00:41:33.584Z,22.48
2023-01-20T00:44:03.604Z,23.55
2023-01-20T00:46:31.413Z,24.90
2023-01-20T00:48:59.415Z,24.85
2023-01-20T00:51:27.228Z,24.48
2023-01-20T00:53:55.263Z,23.95
2023-01-20T00:56:24.390Z,25.67
2023-01-20T00:58:53.010Z,24.98
2023-01-20T01:01:20.896Z,22.77
2023-01-20T01:03:48.819Z,23.95
2023-01-20T01:06:32.361Z,22.70
2023-01-20T01:09:04.016Z,21.10
2023-01-20T01:11:33.179Z,20.23
2023-01-20T01:14:00.979Z,20.48
2023-01-20T01:20:13.709Z,16.60
2023-01-20T01:22:41.920Z,16.17
2023-01-20T01:25:09.956Z,18.40
2023-01-20T01:27:39.088Z,16.75
2023-01-20T01:30:08.072Z,18.58
2023-01-20T01:32:35.874Z,18.30
2023-01-20T01:35:03.676Z,17.83
2023-01-20T01:37:31.430Z,18.38
2023-01-20T01:39:59.190Z,19.83
2023-01-20T01:42:29.320Z,19.67
2023-01-20T01:45:22.685Z,20.35
2023-01-20T01:47:53.862Z,21.88
2023-01-20T01:50:25.338Z,22.60
2023-01-20T01:52:55.030Z,23.17
2023-01-20T01:55:24.549Z,22.77
2023-01-20T01:57:53.273Z,22.98
2023-01-20T02:00:22.913Z,22.97
2023-01-20T02:02:51.156Z,23.30
2023-01-20T02:05:19.357Z,23.50
2023-01-20T02:07:48.672Z,23.67
2023-01-20T02:10:18.713Z,23.88
2023-01-20T02:12:49.751Z,23.70
2023-01-20T02:15:22.781Z,23.35
2023-01-20T02:18:06.539Z,24.17
2023-01-20T02:21:06.015Z,24.33
2023-01-20T02:23:47.465Z,25.80
2023-01-20T02:30:18.910Z,25.38
2023-01-20T02:32:55.743Z,25.67
2023-01-20T02:35:26.402Z,25.00
2023-01-20T02:38:15.433Z,26.25
2023-01-20T02:40:54.575Z,24.37
2023-01-20T02:43:29.167Z,23.60
2023-01-20T02:46:01.242Z,23.20
2023-01-20T02:48:35.419Z,25.02
2023-01-20T02:54:05.093Z,24.73
2023-01-20T02:56:33.347Z,24.23
2023-01-20T02:59:03.858Z,23.65
2023-01-20T03:01:33.610Z,23.55
2023-01-20T03:04:04.380Z,22.60
2023-01-20T03:06:35.962Z,22.95
2023-01-20T03:09:07.525Z,21.30
2023-01-20T03:11:37.552Z,18.73
2023-01-20T03:14:08.732Z,19.80
2023-01-20T03:16:36.832Z,18.95
2023-01-20T03:19:06.188Z,19.45
2023-01-20T03:21:37.878Z,19.33
2023-01-20T03:24:06.881Z,18.60
2023-01-20T03:26:35.310Z,17.47
2023-01-20T03:29:06.664Z,18.60
2023-01-20T03:31:37.680Z,18.23
2023-01-20T03:34:14.418Z,18.00
2023-01-20T03:36:43.777Z,16.73
2023-01-20T03:39:11.843Z,15.55
2023-01-20T03:41:52.471Z,14.18
2023-01-20T03:44:23.550Z,12.88
2023-01-20T03:46:54.877Z,12.13
2023-01-20T03:49:28.148Z,8.43
2023-01-20T03:52:01.040Z,8.30
2023-01-20T03:57:32.584Z,9.02
2023-01-20T04:00:00.648Z,9.85
2023-01-20T04:02:32.432Z,10.23
2023-01-20T04:05:02.686Z,11.13
2023-01-20T04:07:32.111Z,9.73
2023-01-20T04:10:04.371Z,10.45
2023-01-20T04:12:32.213Z,11.38
2023-01-20T04:17:56.430Z,12.50
2023-01-20T04:20:27.802Z,11.57
2023-01-20T04:28:45.293Z,12.52
2023-01-20T04:31:28.942Z,13.65
2023-01-20T04:33:57.382Z,14.18
2023-01-20T04:36:26.566Z,14.70
2023-01-20T04:38:54.455Z,15.77
2023-01-20T04:41:24.288Z,15.40
2023-01-20T04:43:52.238Z,16.88
2023-01-20T04:46:19.892Z,17.33
2023-01-20T04:48:47.748Z,16.88
2023-01-20T04:51:16.580Z,17.95
2023-01-20T04:53:45.993Z,16.75
2023-01-20T04:56:16.647Z,17.10
2023-01-20T04:58:45.795Z,17.00
2023-01-20T05:01:13.849Z,16.55
2023-01-20T05:03:41.789Z,14.43
2023-01-20T05:06:11.268Z,15.48
2023-01-20T05:08:39.112Z,14.48
2023-01-20T05:11:08.424Z,16.73
2023-01-20T05:13:39.294Z,15.02
2023-01-20T05:16:07.890Z,15.40
2023-01-20T05:18:35.873Z,16.00
2023-01-20T05:21:04.931Z,16.13
2023-01-20T05:23:34.437Z,16.33
2023-01-20T05:26:02.124Z,15.95
2023-01-20T05:28:31.463Z,18.07
2023-01-20T05:30:59.751Z,17.95
2023-01-20T05:33:27.816Z,18.42
2023-01-20T05:35:56.118Z,18.63
2023-01-20T05:38:23.973Z,17.73
2023-01-20T05:40:51.732Z,17.23
2023-01-20T05:43:20.277Z,16.55
2023-01-20T05:45:49.562Z,14.30
2023-01-20T05:48:17.483Z,15.57
2023-01-20T05:50:48.668Z,16.35
2023-01-20T05:53:17.100Z,17.92
2023-01-20T05:55:45.122Z,19.00
2023-01-20T05:58:14.405Z,16.88
2023-01-20T06:00:42.433Z,17.63
2023-01-20T06:03:11.601Z,17.30
2023-01-20T06:05:39.234Z,17.27
2023-01-20T06:08:07.529Z,18.33
2023-01-20T06:10:35.436Z,16.23
2023-01-20T06:13:03.328Z,17.08
2023-01-20T06:15:31.236Z,17.08
2023-01-20T06:17:59.176Z,16.17
2023-01-20T06:20:29.041Z,17.73
2023-01-20T06:22:57.033Z,17.67
2023-01-20T06:28:19.306Z,18.20
2023-01-20T06:30:47.181Z,16.92
2023-01-20T06:33:15.200Z,18.38
2023-01-20T06:35:44.336Z,19.15
2023-01-20T06:38:13.257Z,17.15
2023-01-20T06:40:41.213Z,17.23
2023-01-20T06:43:09.140Z,16.75
2023-01-20T06:45:38.389Z,17.70
2023-01-20T06:48:08.594Z,17.70
2023-01-20T06:50:36.509Z,18.23
2023-01-20T06:53:05.807Z,18.20
2023-01-20T06:55:33.603Z,19.30
2023-01-20T06:58:02.299Z,18.75
2023-01-20T07:00:30.388Z,18.63
2023-01-20T07:02:58.240Z,18.95
2023-01-20T07:05:26.111Z,18.30
2023-01-20T07:07:53.909Z,17.85
2023-01-20T07:10:23.210Z,17.45
2023-01-20T07:12:51.787Z,16.13
2023-01-20T07:15:19.795Z,15.82
2023-01-20T07:17:47.792Z,15.55
2023-01-20T07:20:15.762Z,14.77
2023-01-20T07:22:43.631Z,15.05
2023-01-20T07:25:11.532Z,13.95
2023-01-20T07:27:40.851Z,13.90
2023-01-20T07:30:10.215Z,13.80
2023-01-20T07:32:38.798Z,13.80
2023-01-20T07:35:07.496Z,13.20
2023-01-20T07:37:35.323Z,13.27
2023-01-20T07:40:03.541Z,14.23
2023-01-20T07:42:31.288Z,15.57
2023-01-20T07:45:01.692Z,16.42
2023-01-20T07:47:37.654Z,17.53
2023-01-20T07:50:08.775Z,17.15
2023-01-20T07:52:39.666Z,15.65
2023-01-20T07:55:10.487Z,18.15
2023-01-20T07:57:38.500Z,17.58
2023-01-20T08:00:10.770Z,18.40
2023-01-20T08:02:39.420Z,17.80
2023-01-20T08:07:53.014Z,18.88
2023-01-20T08:10:24.507Z,17.87
2023-01-20T08:12:55.862Z,18.17
2023-01-20T08:16:09.246Z,18.85
2023-01-20T08:22:55.336Z,18.55
2023-01-20T08:25:23.435Z,18.95
2023-01-20T08:28:42.779Z,19.17
2023-01-20T08:31:31.237Z,18.88
2023-01-20T08:33:59.642Z,19.17
2023-01-20T08:36:58.672Z,19.25
2023-01-20T08:39:26.794Z,20.25
2023-01-20T08:41:54.858Z,19.67
2023-01-20T08:44:22.757Z,19.42
2023-01-20T08:46:55.173Z,21.30
2023-01-20T08:49:23.659Z,20.23
2023-01-20T08:51:51.922Z,21.38
2023-01-20T08:54:19.875Z,21.55
2023-01-20T08:56:51.227Z,20.83
2023-01-20T08:59:19.158Z,18.77
2023-01-20T09:01:46.972Z,19.70
2023-01-20T09:04:16.155Z,18.70
2023-01-20T09:06:45.921Z,19.98
2023-01-20T09:09:15.135Z,18.30
2023-01-20T09:11:44.789Z,18.83
2023-01-20T09:14:12.653Z,20.80
2023-01-20T09:16:40.388Z,20.77
2023-01-20T09:19:08.525Z,20.40
2023-01-20T09:21:37.590Z,19.38
2023-01-20T09:24:06.197Z,20.75
2023-01-20T09:26:38.594Z,19.08
2023-01-20T09:29:10.408Z,19.43
2023-01-20T09:31:38.776Z,18.33
2023-01-20T09:34:06.482Z,18.58
2023-01-20T09:36:34.343Z,18.27
2023-01-20T09:39:24.312Z,17.53
2023-01-20T09:42:10.030Z,17.92
2023-01-20T09:44:50.364Z,16.92
2023-01-20T09:51:48.580Z,16.92
2023-01-20T09:57:10.393Z,17.70
2023-01-20T10:02:29.244Z,16.77
2023-01-20T10:05:00.328Z,16.70
2023-01-20T10:07:33.971Z,17.27
2023-01-20T10:10:10.494Z,16.13
2023-01-20T10:12:42.106Z,14.50
2023-01-20T10:15:12.632Z,13.13
2023-01-20T10:17:44.284Z,12.60
2023-01-20T10:20:19.202Z,12.90
2023-01-20T10:22:50.211Z,12.20
2023-01-20T10:25:22.570Z,13.70
2023-01-20T10:27:54.110Z,14.50
2023-01-20T10:30:25.272Z,13.63
2023-01-20T10:32:56.327Z,13.88
2023-01-20T10:35:27.176Z,12.02
2023-01-20T10:37:55.781Z,12.75
2023-01-20T10:40:35.327Z,11.63
2023-01-20T10:43:11.567Z,12.60
2023-01-20T10:45:48.506Z,11.68
2023-01-20T10:48:27.357Z,11.32
2023-01-20T10:50:57.575Z,10.18
2023-01-20T10:53:44.125Z,10.35
2023-01-20T10:56:24.925Z,10.45
2023-01-20T10:58:53.300Z,9.98
2023-01-20T11:01:21.701Z,10.18
2023-01-20T11:03:50.172Z,11.30
2023-01-20T11:06:20.666Z,11.85
2023-01-20T11:08:48.868Z,11.20
2023-01-20T11:11:20.771Z,11.13
2023-01-20T11:13:48.876Z,10.67
2023-01-20T11:16:19.066Z,10.90
2023-01-20T11:18:57.519Z,10.98
2023-01-20T11:21:26.404Z,10.35
2023-01-20T11:23:56.878Z,10.35
2023-01-20T11:26:28.413Z,9.57
2023-01-20T11:28:58.181Z,9.48
2023-01-20T11:31:37.176Z,10.48
2023-01-20T11:34:21.012Z,9.20
2023-01-20T11:36:48.636Z,11.07
2023-01-20T11:39:26.583Z,11.70
2023-01-20T11:42:11.988Z,11.20
2023-01-20T11:44:43.171Z,11.23
2023-01-20T11:47:24.606Z,10.48
2023-01-20T11:50:26.029Z,10.10
2023-01-20T11:52:53.500Z,10.40
2023-01-20T11:55:23.386Z,11.10
2023-01-20T11:57:56.975Z,11.65
2023-01-20T12:00:39.032Z,11.50
2023-01-20T12:03:28.841Z,10.87
2023-01-20T12:06:00.954Z,9.68
2023-01-20T12:08:31.584Z,10.65
2023-01-20T12:11:03.746Z,9.93
2023-01-20T12:13:57.481Z,10.00
2023-01-20T12:16:27.023Z,10.27
2023-01-20T12:19:02.213Z,10.67
2023-01-20T12:21:35.210Z,10.57
2023-01-20T12:24:07.868Z,10.45
2023-01-20T12:26:35.974Z,10.70
2023-01-20T12:29:08.995Z,11.15
2023-01-20T12:31:36.910Z,10.90
2023-01-20T12:34:06.128Z,10.87
2023-01-20T12:37:00.284Z,10.70
2023-01-20T12:39:44.951Z,10.90
2023-01-20T12:42:29.141Z,11.05
2023-01-20T12:44:59.905Z,11.48
2023-01-20T12:47:40.181Z,11.57
2023-01-20T12:50:19.747Z,10.30
2023-01-20T12:52:58.520Z,10.20
2023-01-20T12:55:46.987Z,11.05
2023-01-20T12:58:22.028Z,10.15
2023-01-20T13:01:18.194Z,11.18
2023-01-20T13:04:12.882Z,11.52
2023-01-20T13:06:50.713Z,11.95
2023-01-20T13:09:35.926Z,11.63
2023-01-20T13:12:11.794Z,11.77
2023-01-20T13:14:43.215Z,11.85
2023-01-20T13:17:20.764Z,11.55
2023-01-20T13:19:49.437Z,11.98
2023-01-20T13:22:19.226Z,11.48
2023-01-20T13:24:49.153Z,12.80
2023-01-20T13:27:21.811Z,11.90
2023-01-20T13:29:57.776Z,11.60
2023-01-20T13:32:32.319Z,12.18
2023-01-20T13:35:01.599Z,12.23
2023-01-20T13:37:35.701Z,11.50
2023-01-20T13:40:03.665Z,11.43
2023-01-20T13:42:49.596Z,11.90
2023-01-20T13:45:25.722Z,11.65
2023-01-20T13:47:58.674Z,11.57
2023-01-20T13:50:29.688Z,11.77
2023-01-20T13:53:15.005Z,11.63
2023-01-20T13:56:08.042Z,12.05
2023-01-20T13:58:36.210Z,11.30
2023-01-20T14:01:05.595Z,12.30
2023-01-20T14:03:36.424Z,12.13
2023-01-20T14:06:06.758Z,13.07
2023-01-20T14:08:39.895Z,13.45
2023-01-20T14:11:12.448Z,13.93
2023-01-20T14:13:40.691Z,14.68
2023-01-20T14:16:19.536Z,13.82
2023-01-20T14:18:49.055Z,14.15
2023-01-20T14:21:20.924Z,14.77
2023-01-20T14:23:48.782Z,15.25
2023-01-20T14:26:22.460Z,14.43
2023-01-20T14:28:51.921Z,15.15
2023-01-20T14:31:37.478Z,14.18
2023-01-20T14:34:24.229Z,14.65
2023-01-20T14:36:52.242Z,14.35
2023-01-20T14:39:21.727Z,13.57
2023-01-20T14:41:51.641Z,13.07
2023-01-20T14:44:21.425Z,12.98
2023-01-20T14:46:54.088Z,12.82
2023-01-20T14:49:32.816Z,12.02
2023-01-20T14:52:01.316Z,12.00
2023-01-20T14:54:38.748Z,11.50
2023-01-20T14:57:19.049Z,9.90
2023-01-20T14:59:46.872Z,9.17
2023-01-20T15:02:19.937Z,10.05
2023-01-20T15:04:49.062Z,9.85
2023-01-20T15:07:19.398Z,10.23
2023-01-20T15:09:52.811Z,10.88
2023-01-20T15:12:40.478Z,9.93
2023-01-20T15:15:14.603Z,10.18
2023-01-20T15:18:15.776Z,11.30
2023-01-20T15:20:46.499Z,10.65
2023-01-20T15:23:20.499Z,10.07
2023-01-20T15:25:48.245Z,9.68
2023-01-20T15:28:22.958Z,9.23
2023-01-20T15:30:50.657Z,8.05
2023-01-20T15:33:18.191Z,7.00
2023-01-20T15:35:47.106Z,6.85
2023-01-20T15:38:14.868Z,7.82
2023-01-20T15:40:42.433Z,7.72
2023-01-20T15:43:15.500Z,8.25
2023-01-20T15:45:43.245Z,10.00
2023-01-20T15:48:18.631Z,10.40
2023-01-20T15:50:48.088Z,9.90
2023-01-20T15:53:16.495Z,9.70
2023-01-20T15:55:49.269Z,10.48
2023-01-20T15:58:22.772Z,10.75
2023-01-20T16:00:50.861Z,10.98
2023-01-20T16:03:18.711Z,10.48
2023-01-20T16:05:48.896Z,10.40
2023-01-20T16:08:17.255Z,10.52
2023-01-20T16:10:45.374Z,9.40
2023-01-20T16:13:12.976Z,10.48
2023-01-20T16:15:42.874Z,11.27
2023-01-20T16:18:13.465Z,11.02
2023-01-20T16:20:41.905Z,10.93
2023-01-20T16:23:10.867Z,12.65
2023-01-20T16:25:38.489Z,12.13
2023-01-20T16:28:13.209Z,12.73
2023-01-20T16:30:41.306Z,13.10
2023-01-20T16:33:16.830Z,12.85
2023-01-20T16:35:44.759Z,13.65
2023-01-20T16:38:16.546Z,12.45
2023-01-20T16:40:47.694Z,12.93
2023-01-20T16:43:15.220Z,12.52
2023-01-20T16:45:43.295Z,12.98
2023-01-20T16:48:10.941Z,12.88
2023-01-20T16:50:38.613Z,12.55
2023-01-20T16:53:06.206Z,12.27
2023-01-20T16:55:37.503Z,13.90
2023-01-20T16:58:06.828Z,13.40
2023-01-20T17:00:34.818Z,14.10
2023-01-20T17:03:03.388Z,13.43
2023-01-20T17:05:30.985Z,12.90
2023-01-20T17:08:02.105Z,14.52
2023-01-20T17:11:05.564Z,14.10
2023-01-20T17:13:33.327Z,13.70
2023-01-20T17:16:01.029Z,14.43
2023-01-20T17:18:30.445Z,14.73
2023-01-20T17:20:58.310Z,13.73
2023-01-20T17:23:26.257Z,12.90
2023-01-20T17:25:55.152Z,14.57
2023-01-20T17:28:25.960Z,13.38
2023-01-20T17:30:53.671Z,13.30
2023-01-20T17:33:24.648Z,14.38
2023-01-20T17:35:56.414Z,14.30
2023-01-20T17:38:24.496Z,15.07
2023-01-20T17:40:52.267Z,13.70
2023-01-20T17:43:21.216Z,14.98
2023-01-20T17:45:48.954Z,13.15
2023-01-20T17:48:16.640Z,13.07
2023-01-20T17:50:44.356Z,13.32
2023-01-20T17:53:12.816Z,13.32
2023-01-20T17:55:40.497Z,15.77
2023-01-20T17:58:08.463Z,15.27
2023-01-20T18:00:37.354Z,14.80
2023-01-20T18:03:05.067Z,13.63
2023-01-20T18:05:35.131Z,13.43
2023-01-20T18:08:03.002Z,13.43
2023-01-20T18:10:30.725Z,12.10
2023-01-20T18:12:58.768Z,11.77
2023-01-20T18:15:26.395Z,12.15
2023-01-20T18:17:55.448Z,14.23
2023-01-20T18:20:23.917Z,14.43
2023-01-20T18:22:51.834Z,13.75
2023-01-20T18:25:19.637Z,13.18
2023-01-20T18:27:47.295Z,13.25
2023-01-20T18:30:15.950Z,12.85
2023-01-20T18:32:43.748Z,13.18
2023-01-20T18:35:12.998Z,13.00
2023-01-20T18:37:40.676Z,13.17
2023-01-20T18:40:10.925Z,15.77
2023-01-20T18:42:38.747Z,15.20
2023-01-20T18:45:08.933Z,14.82
2023-01-20T18:47:36.759Z,14.35
2023-01-20T18:50:05.018Z,15.38
2023-01-20T18:52:34.209Z,15.63
2023-01-20T18:55:02.122Z,16.00
2023-01-20T18:57:29.987Z,16.38
2023-01-20T18:59:57.972Z,16.25
2023-01-20T19:02:26.986Z,16.57
2023-01-20T19:04:54.868Z,17.27
2023-01-20T19:07:22.733Z,16.27
2023-01-20T19:09:52.084Z,17.65
2023-01-20T19:12:19.894Z,17.35
2023-01-20T19:14:47.681Z,15.98
2023-01-20T19:17:15.650Z,16.48
2023-01-20T19:19:47.889Z,17.70
2023-01-20T19:22:15.761Z,16.73
2023-01-20T19:24:43.632Z,16.23
2023-01-20T19:27:12.815Z,17.70
2023-01-20T19:29:41.495Z,17.45
2023-01-20T19:32:09.390Z,18.30
2023-01-20T19:34:37.475Z,17.52
2023-01-20T19:37:05.277Z,16.67
2023-01-20T19:39:33.115Z,18.33
2023-01-20T19:42:00.878Z,17.65
2023-01-20T19:44:30.451Z,17.15
2023-01-20T19:47:03.996Z,17.17
2023-01-20T19:49:31.830Z,17.70
2023-01-20T19:52:00.778Z,16.38
2023-01-20T19:54:31.039Z,16.00
2023-01-20T19:56:58.807Z,16.75
2023-01-20T19:59:26.831Z,16.00
2023-01-20T20:01:56.343Z,16.65
2023-01-20T20:04:25.489Z,16.02
2023-01-20T20:06:53.280Z,16.95
2023-01-20T20:09:23.579Z,16.30
2023-01-20T20:11:51.755Z,18.17
2023-01-20T20:14:20.814Z,17.13
2023-01-20T20:16:49.213Z,18.70
2023-01-20T20:19:20.229Z,18.70
2023-01-20T20:21:48.204Z,19.00
2023-01-20T20:24:17.792Z,18.63
2023-01-20T20:26:46.784Z,19.38
2023-01-20T20:29:16.109Z,20.17
2023-01-20T20:31:44.108Z,18.17
2023-01-20T20:34:14.436Z,18.95
2023-01-20T20:36:43.847Z,17.75
2023-01-20T20:39:14.359Z,17.48
2023-01-20T20:41:42.370Z,17.08
2023-01-20T20:44:10.744Z,17.33
2023-01-20T20:46:38.851Z,17.77
2023-01-20T20:49:06.916Z,17.05
2023-01-20T20:51:35.445Z,16.95
2023-01-20T20:54:04.991Z,17.98
2023-01-20T20:56:33.267Z,19.10
2023-01-20T20:59:03.432Z,18.65
2023-01-20T21:01:32.727Z,18.20
2023-01-20T21:04:00.981Z,18.65
2023-01-20T21:06:29.431Z,18.77
2023-01-20T21:08:58.566Z,18.63
2023-01-20T21:11:28.461Z,19.25
2023-01-20T21:13:56.930Z,19.50
2023-01-20T21:16:26.220Z,19.47
2023-01-20T21:19:00.132Z,19.20
2023-01-20T21:24:21.165Z,18.20
2023-01-20T21:26:58.110Z,18.92
2023-01-20T21:29:27.568Z,17.88
2023-01-20T21:31:55.889Z,19.13
2023-01-20T21:34:25.601Z,18.08
2023-01-20T21:36:53.886Z,17.90
2023-01-20T21:39:21.875Z,18.05
2023-01-20T21:41:51.250Z,17.00
2023-01-20T21:44:29.657Z,18.40
2023-01-20T21:46:58.198Z,17.65
2023-01-20T21:49:46.289Z,19.23
2023-01-20T21:52:33.458Z,18.63
2023-01-20T21:55:01.631Z,18.17
2023-01-20T21:57:32.731Z,17.42
2023-01-20T22:00:01.279Z,18.63
2023-01-20T22:02:30.039Z,17.45
2023-01-20T22:05:00.302Z,17.83
2023-01-20T22:07:30.445Z,18.13
2023-01-20T22:09:58.451Z,15.77
2023-01-20T22:12:26.443Z,16.80
2023-01-20T22:14:56.074Z,17.40
2023-01-20T22:17:24.450Z,16.45
2023-01-20T22:19:52.403Z,17.25
2023-01-20T22:22:21.325Z,15.93
2023-01-20T22:24:49.324Z,17.83
2023-01-20T22:27:17.600Z,17.83
2023-01-20T22:29:45.695Z,17.67
2023-01-20T22:32:15.234Z,19.43
2023-01-20T22:34:43.385Z,20.55
2023-01-20T22:37:11.360Z,20.50
2023-01-20T22:39:39.438Z,20.17
2023-01-20T22:42:08.168Z,21.48
2023-01-20T22:44:35.912Z,20.73
2023-01-20T22:47:05.815Z,21.33
2023-01-20T22:49:35.110Z,20.77
2023-01-20T22:52:03.081Z,22.80
2023-01-20T22:54:31.015Z,22.15
2023-01-20T22:56:59.039Z,22.70
2023-01-20T22:59:27.207Z,23.55
2023-01-20T23:01:55.207Z,23.00
2023-01-20T23:04:24.712Z,22.38
2023-01-20T23:06:54.156Z,22.77
2023-01-20T23:09:22.354Z,22.70
2023-01-20T23:11:51.028Z,23.50
2023-01-20T23:14:38.935Z,22.27
2023-01-20T23:17:09.917Z,22.40
2023-01-20T23:19:37.888Z,23.43
2023-01-20T23:22:07.036Z,23.40
2023-01-20T23:24:35.035Z,22.45
2023-01-20T23:27:03.180Z,22.58
2023-01-20T23:29:31.103Z,21.70
2023-01-20T23:32:02.612Z,22.85
2023-01-20T23:34:30.849Z,23.27
2023-01-20T23:37:00.963Z,23.23
2023-01-20T23:39:30.421Z,22.30
2023-01-20T23:42:01.521Z,23.15
2023-01-20T23:44:29.785Z,23.58
2023-01-20T23:46:57.722Z,22.63
2023-01-20T23:49:27.450Z,22.75
2023-01-20T23:51:55.606Z,23.25
2023-01-20T23:54:23.681Z,22.60
2023-01-20T23:56:53.035Z,23.10
2023-01-20T23:59:21.086Z,22.58
